Terminal Aerodrome Forecast
Issued by NWS Louisville, KY

Home | Current Version | Previous Version | Text Only | Print | Product List | Glossary On
Versions: 1 2 3 4 5 6 7 8 9 10 11 12
260
FTUS43 KLMK 272047 AAA
TAFBWG
TAF AMD
KBWG 272047Z 2721/2818 24010KT P6SM SCT030
     FM280000 VRB03KT P6SM SCT030
     FM280800 13005KT 6SM BR SCT025 BKN150
     FM281300 16009KT P6SM BKN150=

USA.gov is the U.S. government's official web portal to all federal, state and local government web resources and services.